Terminal Aerodrome Forecast
Issued by NWS Sioux Falls, SD

Home | Current Version | Previous Version | Graphics & Text | Print | Product List | Glossary On
Versions: 1 2 3 4 5 6 7 8 9 10 11 12 13 14 15 16
000
FTUS43 KFSD 162300
TAFFSD
TAF
KFSD 162322Z 1700/1724 35019G26KT P6SM BKN015
      TEMPO 1700/1703 SCT015 OVC030
     FM170300 35014G20KT P6SM OVC015
     FM170900 34013KT P6SM BKN012
     FM171200 34012KT P6SM SCT014 BKN200
     FM171800 36008KT P6SM SKC=

USA.gov is the U.S. government's official web portal to all federal, state and local government web resources and services.